Time;durP1;ratioP1;P1;durP2;ratioP2;P2;SDS_P1;SDS_P2;PMS_P1;PMS_P2;Temp;Humidity;BMP_temperature;BMP_pressure;BME280_temperature;BME280_humidity;BME280_pressure;Samples;Min_cycle;Max_cycle;Signal;HPM_P1;HPM_P2
2021/07/21 00:02:21;;;;;;;13.00;3.90;;;19.10;90.80;;;;;;5056285;28;20036;-68
2021/07/21 00:04:47;;;;;;;7.80;3.67;;;19.10;90.50;;;;;;5067911;28;20028;-68
2021/07/21 00:07:13;;;;;;;4.75;3.30;;;19.10;90.50;;;;;;5061581;28;20028;-68
2021/07/21 00:09:39;;;;;;;7.68;3.63;;;19.10;90.70;;;;;;5060943;28;20099;-66
2021/07/21 00:14:49;;;;;;;13.10;4.18;;;19.00;90.70;;;;;;5067495;28;20032;-67
2021/07/21 00:17:20;;;;;;;11.20;4.03;;;19.00;90.60;;;;;;5061282;28;20029;-69
2021/07/21 00:22:31;;;;;;;7.47;3.78;;;18.90;90.90;;;;;;5070569;28;20353;-67
2021/07/21 00:24:56;;;;;;;6.03;3.30;;;18.90;91.00;;;;;;5053998;28;20487;-66
2021/07/21 00:27:23;;;;;;;4.78;3.22;;;19.00;91.20;;;;;;5059037;28;20442;-68
2021/07/21 00:29:49;;;;;;;5.32;2.95;;;19.00;90.90;;;;;;5067604;28;20390;-68
2021/07/21 00:32:15;;;;;;;7.25;3.28;;;19.00;91.00;;;;;;5054067;28;20288;-67
2021/07/21 00:34:41;;;;;;;5.30;3.47;;;19.00;91.00;;;;;;5057488;28;20107;-67
2021/07/21 00:37:07;;;;;;;7.78;3.55;;;19.00;90.80;;;;;;5071998;28;20078;-67
2021/07/21 00:39:32;;;;;;;11.13;4.28;;;18.90;91.10;;;;;;5061105;28;20072;-66
2021/07/21 00:41:58;;;;;;;3.35;3.03;;;18.90;91.00;;;;;;5052587;28;20025;-67
2021/07/21 00:44:23;;;;;;;5.95;3.10;;;18.90;91.00;;;;;;5071057;28;20055;-68
2021/07/21 00:46:49;;;;;;;4.40;3.28;;;18.60;91.00;;;;;;5072461;28;20462;-66
2021/07/21 00:49:15;;;;;;;4.55;3.10;;;18.60;91.30;;;;;;5073359;28;20407;-68
2021/07/21 00:51:40;;;;;;;4.95;3.47;;;18.50;91.30;;;;;;5072323;28;20028;-66
2021/07/21 00:54:07;;;;;;;5.20;3.35;;;18.50;91.30;;;;;;5063759;28;20037;-69
2021/07/21 00:56:35;;;;;;;5.32;3.30;;;18.50;91.30;;;;;;5040060;28;20075;-68
2021/07/21 00:59:02;;;;;;;3.38;2.85;;;18.50;91.40;;;;;;5038392;28;20443;-68
2021/07/21 01:01:27;;;;;;;5.32;3.78;;;18.40;91.40;;;;;;5022102;28;20044;-67
2021/07/21 01:03:53;;;;;;;4.47;3.08;;;18.40;91.30;;;;;;5024234;28;20471;-67
2021/07/21 01:06:19;;;;;;;5.88;3.40;;;18.40;91.50;;;;;;5040642;28;20029;-66
2021/07/21 01:08:45;;;;;;;5.22;3.15;;;18.40;91.50;;;;;;5039331;28;20391;-66
2021/07/21 01:11:23;;;;;;;4.30;3.20;;;18.40;91.60;;;;;;5022894;28;20060;-67
2021/07/21 01:14:02;;;;;;;6.35;3.13;;;18.40;91.70;;;;;;5023651;28;20351;-67
2021/07/21 01:16:33;;;;;;;4.38;3.10;;;18.50;91.70;;;;;;5025615;28;20123;-66
2021/07/21 01:19:28;;;;;;;5.75;3.33;;;18.40;91.50;;;;;;5044392;28;20033;-69
2021/07/21 01:22:05;;;;;;;5.70;3.15;;;18.50;91.50;;;;;;5039233;28;20080;-66
2021/07/21 01:25:05;;;;;;;4.10;3.40;;;18.50;91.40;;;;;;5040614;28;20025;-67
2021/07/21 01:27:51;;;;;;;5.22;3.40;;;18.40;91.40;;;;;;5025291;28;20083;-68
2021/07/21 01:30:20;;;;;;;7.68;3.42;;;18.30;91.90;;;;;;5037578;28;20128;-67
2021/07/21 01:32:49;;;;;;;6.85;3.35;;;18.20;91.70;;;;;;5014343;28;20557;-68
2021/07/21 01:35:34;;;;;;;3.92;2.83;;;18.20;91.70;;;;;;5012285;28;20032;-66
2021/07/21 01:38:04;;;;;;;4.63;3.28;;;18.10;91.70;;;;;;5031099;28;20048;-68
2021/07/21 01:40:45;;;;;;;4.03;2.87;;;18.20;91.70;;;;;;5014801;28;20029;-67
2021/07/21 01:43:18;;;;;;;15.38;3.22;;;18.10;91.70;;;;;;5030902;28;20260;-67
2021/07/21 01:45:47;;;;;;;4.63;2.63;;;18.20;91.80;;;;;;5031969;28;20100;-68
2021/07/21 01:48:19;;;;;;;2.78;2.28;;;18.20;91.70;;;;;;5031210;28;20038;-67
2021/07/21 01:50:46;;;;;;;4.47;3.40;;;18.10;91.70;;;;;;5031445;28;20025;-66
2021/07/21 01:53:12;;;;;;;5.57;3.20;;;18.10;91.80;;;;;;5031187;28;20407;-66
2021/07/21 01:55:39;;;;;;;6.18;2.88;;;18.10;91.80;;;;;;5039311;28;20143;-68
2021/07/21 01:58:05;;;;;;;4.43;2.45;;;18.10;91.70;;;;;;5049547;28;20076;-68
2021/07/21 02:00:32;;;;;;;4.05;3.03;;;18.10;91.60;;;;;;5050455;28;20031;-67
2021/07/21 02:02:59;;;;;;;3.80;3.20;;;18.10;91.70;;;;;;5051561;28;20086;-67
2021/07/21 02:05:26;;;;;;;17.35;3.13;;;18.00;91.90;;;;;;5050160;28;20082;-67
2021/07/21 02:07:54;;;;;;;4.60;2.92;;;18.10;91.80;;;;;;5051496;28;20024;-67
2021/07/21 02:10:27;;;;;;;6.30;3.50;;;18.10;91.80;;;;;;5049395;28;20029;-67
2021/07/21 02:13:01;;;;;;;4.55;2.90;;;18.10;91.80;;;;;;5049750;28;20584;-66
2021/07/21 02:15:27;;;;;;;3.58;2.75;;;18.00;91.70;;;;;;5051530;28;20029;-68
2021/07/21 02:17:54;;;;;;;7.75;3.40;;;17.90;91.90;;;;;;5049455;28;20032;-67
2021/07/21 02:20:21;;;;;;;4.50;2.97;;;18.00;92.00;;;;;;5050704;28;20028;-67
2021/07/21 02:22:48;;;;;;;4.82;3.10;;;18.00;91.90;;;;;;5050935;28;20112;-68
2021/07/21 02:25:14;;;;;;;5.97;3.10;;;17.90;92.00;;;;;;5049163;28;20037;-68
2021/07/21 02:27:41;;;;;;;4.60;2.58;;;17.90;92.00;;;;;;5051264;28;20118;-68
2021/07/21 02:30:09;;;;;;;3.22;2.47;;;17.90;92.10;;;;;;5049454;28;20059;-68
2021/07/21 02:32:46;;;;;;;3.22;2.88;;;17.90;92.00;;;;;;5051158;28;20037;-67
2021/07/21 02:35:18;;;;;;;6.95;2.70;;;17.80;92.10;;;;;;5050497;28;20094;-67
2021/07/21 02:37:43;;;;;;;;;;;17.80;92.20;;;;;;5051442;28;20486;-67
2021/07/21 02:40:09;;;;;;;3.33;2.50;;;17.80;92.30;;;;;;5050135;28;20058;-67
2021/07/21 02:42:35;;;;;;;7.15;3.00;;;17.70;92.30;;;;;;5050685;28;20025;-66
2021/07/21 02:45:01;;;;;;;6.20;3.15;;;17.70;92.30;;;;;;5050560;28;20326;-66
2021/07/21 02:47:28;;;;;;;4.78;2.83;;;17.70;92.30;;;;;;5049493;28;20415;-68
2021/07/21 02:49:53;;;;;;;5.20;2.35;;;17.70;92.30;;;;;;5050719;28;20139;-67
2021/07/21 02:52:53;;;;;;;8.63;3.42;;;17.60;92.50;;;;;;5048821;28;20036;-67
2021/07/21 02:55:24;;;;;;;4.80;2.97;;;17.70;92.40;;;;;;5041062;28;20445;-67
2021/07/21 02:57:52;;;;;;;;;;;17.60;92.50;;;;;;5017107;28;20132;-67
2021/07/21 03:00:20;;;;;;;5.07;2.58;;;17.60;92.60;;;;;;5034251;28;19917;-67
2021/07/21 03:02:49;;;;;;;4.70;2.90;;;17.70;92.60;;;;;;5034861;28;20467;-67
2021/07/21 03:05:18;;;;;;;5.57;3.08;;;17.70;92.50;;;;;;5034221;28;20030;-67
2021/07/21 03:07:50;;;;;;;9.25;3.85;;;17.70;92.60;;;;;;5034804;28;20052;-67
2021/07/21 03:10:17;;;;;;;5.05;2.97;;;17.70;92.60;;;;;;5016373;28;20334;-67
2021/07/21 03:12:47;;;;;;;5.07;3.55;;;17.70;92.50;;;;;;5034748;28;20471;-67
2021/07/21 03:15:14;;;;;;;6.00;3.00;;;17.70;92.40;;;;;;5034076;28;20045;-67
2021/07/21 03:17:43;;;;;;;5.13;2.80;;;17.60;92.50;;;;;;5016728;28;20026;-67
2021/07/21 03:20:10;;;;;;;2.90;2.35;;;17.40;92.70;;;;;;5033873;28;20036;-67
2021/07/21 03:22:37;;;;;;;5.45;2.83;;;17.50;92.70;;;;;;5016877;28;20430;-67
2021/07/21 03:25:08;;;;;;;4.65;3.28;;;17.60;92.70;;;;;;5034613;28;20087;-67
2021/07/21 03:27:36;;;;;;;7.60;3.00;;;17.50;92.60;;;;;;5034330;28;20037;-67
2021/07/21 03:30:10;;;;;;;4.25;3.20;;;17.50;92.80;;;;;;5033623;28;20116;-67
2021/07/21 03:32:39;;;;;;;4.10;2.45;;;17.50;92.80;;;;;;5016724;28;20025;-67
2021/07/21 03:35:06;;;;;;;4.00;2.90;;;17.50;92.80;;;;;;5016548;28;20092;-72
2021/07/21 03:37:34;;;;;;;7.35;3.00;;;17.40;92.70;;;;;;5034106;28;20517;-66
2021/07/21 03:40:02;;;;;;;5.75;3.22;;;17.50;92.80;;;;;;5034893;28;20032;-68
2021/07/21 03:42:29;;;;;;;6.35;3.10;;;17.30;93.00;;;;;;5034926;28;20068;-67
2021/07/21 03:44:58;;;;;;;4.82;2.95;;;17.40;93.00;;;;;;5035374;28;20041;-67
2021/07/21 03:47:25;;;;;;;7.72;2.95;;;17.40;93.10;;;;;;5034359;28;20124;-67
2021/07/21 03:49:52;;;;;;;3.15;2.63;;;17.40;93.10;;;;;;5034183;28;20439;-68
2021/07/21 03:52:19;;;;;;;6.05;3.33;;;17.30;93.20;;;;;;5033060;28;20466;-66
2021/07/21 03:54:46;;;;;;;5.15;2.45;;;17.30;93.20;;;;;;5027062;28;20048;-66
2021/07/21 03:57:13;;;;;;;9.98;4.75;;;17.30;93.30;;;;;;5052955;28;20040;-67
2021/07/21 03:59:39;;;;;;;4.28;2.58;;;17.20;93.40;;;;;;5053633;28;20029;-66
2021/07/21 04:02:07;;;;;;;7.13;3.22;;;17.30;93.30;;;;;;5053569;28;20044;-66
2021/07/21 04:04:35;;;;;;;7.80;3.30;;;17.30;93.20;;;;;;5053810;28;20028;-67
2021/07/21 04:07:02;;;;;;;6.28;3.17;;;17.30;93.20;;;;;;5053567;28;20139;-67
2021/07/21 04:09:28;;;;;;;5.32;2.92;;;17.30;93.30;;;;;;5051464;28;20052;-67
2021/07/21 04:11:56;;;;;;;6.70;3.47;;;17.30;93.40;;;;;;5053266;28;20473;-67
2021/07/21 04:14:22;;;;;;;4.38;2.92;;;17.20;93.50;;;;;;5051619;28;20490;-69
2021/07/21 04:16:50;;;;;;;5.55;3.13;;;17.40;93.50;;;;;;5053226;28;20029;-69
2021/07/21 04:19:18;;;;;;;4.30;2.80;;;17.30;93.60;;;;;;5051407;28;20124;-68
2021/07/21 04:21:50;;;;;;;5.93;2.92;;;17.30;93.60;;;;;;5051750;28;20060;-68
2021/07/21 04:24:17;;;;;;;4.72;3.33;;;17.10;93.70;;;;;;5052357;28;20021;-66
2021/07/21 04:26:43;;;;;;;6.90;3.83;;;17.10;93.90;;;;;;5053109;28;20037;-66
2021/07/21 04:29:17;;;;;;;7.82;3.50;;;17.00;94.20;;;;;;5052460;28;20025;-67
2021/07/21 04:31:44;;;;;;;5.90;3.13;;;17.10;94.30;;;;;;5051618;28;20048;-67
2021/07/21 04:34:12;;;;;;;6.82;3.20;;;17.00;94.20;;;;;;5051031;28;20029;-67
2021/07/21 04:36:40;;;;;;;4.35;3.15;;;17.00;94.40;;;;;;5051473;28;20021;-68
2021/07/21 04:39:07;;;;;;;6.47;2.92;;;17.20;93.90;;;;;;5052648;28;20040;-67
2021/07/21 04:41:34;;;;;;;6.95;3.80;;;17.40;93.70;;;;;;5050577;28;20453;-68
2021/07/21 04:44:02;;;;;;;10.38;3.33;;;17.40;93.90;;;;;;5052554;28;20032;-67
2021/07/21 04:46:31;;;;;;;6.40;3.22;;;17.40;94.00;;;;;;5050927;28;20028;-68
2021/07/21 04:48:57;;;;;;;4.57;3.10;;;17.50;93.70;;;;;;5052451;28;20037;-67
2021/07/21 04:51:23;;;;;;;9.48;3.25;;;17.50;93.90;;;;;;5051366;28;20029;-67
2021/07/21 04:53:54;;;;;;;4.70;3.25;;;17.50;93.90;;;;;;5052532;28;20029;-67
2021/07/21 04:56:20;;;;;;;6.57;2.90;;;17.50;93.90;;;;;;5052344;28;20055;-69
2021/07/21 04:58:46;;;;;;;6.63;3.63;;;17.60;93.90;;;;;;5051294;28;20037;-67
2021/07/21 05:01:13;;;;;;;4.60;3.00;;;17.60;93.70;;;;;;5051716;28;20490;-69
2021/07/21 05:03:38;;;;;;;7.13;2.97;;;17.70;93.50;;;;;;5052320;28;20374;-68
2021/07/21 05:06:05;;;;;;;5.43;3.10;;;17.80;93.50;;;;;;5052455;28;20029;-68
2021/07/21 05:08:30;;;;;;;7.13;3.30;;;17.80;93.30;;;;;;5050424;28;20136;-66
2021/07/21 05:10:56;;;;;;;7.20;2.95;;;17.90;93.30;;;;;;5052499;28;20439;-67
2021/07/21 05:13:22;;;;;;;5.93;3.90;;;17.80;93.40;;;;;;5051733;28;20025;-67
2021/07/21 05:15:48;;;;;;;3.97;3.10;;;17.80;93.50;;;;;;5050649;28;20422;-67
2021/07/21 05:18:14;;;;;;;7.50;3.63;;;17.80;93.60;;;;;;5050867;28;20033;-68
2021/07/21 05:20:40;;;;;;;5.80;3.25;;;18.00;93.30;;;;;;5052229;28;20029;-68
2021/07/21 05:23:06;;;;;;;4.28;3.63;;;18.00;93.30;;;;;;5051747;28;20078;-68
2021/07/21 05:25:32;;;;;;;6.57;3.45;;;18.00;93.30;;;;;;5051907;28;20060;-68
2021/07/21 05:27:57;;;;;;;7.40;3.92;;;18.00;93.20;;;;;;5052058;28;20065;-68
2021/07/21 05:30:23;;;;;;;7.63;3.28;;;18.10;93.30;;;;;;5051486;28;20446;-67
2021/07/21 05:32:49;;;;;;;4.18;3.40;;;18.20;93.50;;;;;;5051918;28;20060;-69
2021/07/21 05:35:14;;;;;;;6.35;3.70;;;18.20;93.50;;;;;;5053214;28;20319;-68
2021/07/21 05:37:40;;;;;;;8.93;3.88;;;18.30;93.60;;;;;;5051816;28;20037;-67
2021/07/21 05:40:07;;;;;;;7.80;3.45;;;18.40;93.50;;;;;;5049870;28;20028;-67
2021/07/21 05:42:33;;;;;;;4.07;3.33;;;18.40;93.00;;;;;;5050480;28;20475;-67
2021/07/21 05:44:58;;;;;;;5.82;3.35;;;18.30;93.20;;;;;;5049931;28;20063;-68
2021/07/21 05:47:24;;;;;;;5.20;3.30;;;18.30;93.10;;;;;;5049369;28;20021;-68
2021/07/21 05:49:50;;;;;;;7.05;4.15;;;18.20;93.10;;;;;;5049863;28;20060;-67
2021/07/21 05:52:16;;;;;;;8.23;3.53;;;18.30;93.10;;;;;;5050491;28;20029;-69
2021/07/21 05:54:42;;;;;;;6.05;3.60;;;18.40;93.30;;;;;;5049994;28;20455;-67
2021/07/21 05:57:08;;;;;;;15.98;4.13;;;18.40;93.30;;;;;;5049615;28;20076;-68
2021/07/21 05:59:34;;;;;;;5.22;3.53;;;18.50;93.10;;;;;;5050357;28;20098;-67
2021/07/21 06:02:00;;;;;;;6.40;3.45;;;18.60;93.20;;;;;;5051061;28;20493;-67
2021/07/21 06:04:26;;;;;;;10.35;3.88;;;18.60;93.20;;;;;;5049008;28;20106;-68
2021/07/21 06:06:52;;;;;;;7.75;4.05;;;18.70;93.20;;;;;;5051106;28;20079;-68
2021/07/21 06:09:18;;;;;;;6.15;3.85;;;18.60;92.70;;;;;;5049143;28;20026;-68
2021/07/21 06:11:44;;;;;;;7.78;3.80;;;18.60;93.10;;;;;;5050469;28;20032;-68
2021/07/21 06:14:10;;;;;;;6.25;3.60;;;18.70;92.60;;;;;;5049839;28;20032;-69
2021/07/21 06:16:37;;;;;;;6.57;3.55;;;18.60;93.00;;;;;;5050276;28;20182;-69
2021/07/21 06:19:04;;;;;;;5.63;3.53;;;18.70;93.10;;;;;;5051119;28;20033;-68
2021/07/21 06:21:30;;;;;;;7.75;4.00;;;18.70;93.30;;;;;;5050577;28;20025;-67
2021/07/21 06:23:55;;;;;;;7.10;3.75;;;18.70;93.10;;;;;;5049458;28;20036;-67
2021/07/21 06:26:21;;;;;;;5.03;3.17;;;18.90;92.70;;;;;;5050177;28;20040;-68
2021/07/21 06:28:48;;;;;;;3.85;3.22;;;18.90;92.80;;;;;;5050004;28;20029;-68
2021/07/21 06:31:15;;;;;;;5.13;3.65;;;19.00;92.80;;;;;;5049480;28;20029;-68
2021/07/21 06:33:41;;;;;;;5.32;3.20;;;19.20;92.30;;;;;;5050935;28;20021;-68
2021/07/21 06:36:07;;;;;;;6.55;3.60;;;19.20;92.20;;;;;;5050611;28;20490;-66
2021/07/21 06:38:32;;;;;;;7.25;3.47;;;19.30;92.10;;;;;;5049012;28;20033;-68
2021/07/21 06:40:58;;;;;;;5.50;3.20;;;19.20;92.20;;;;;;5050667;28;20108;-67
2021/07/21 06:43:24;;;;;;;5.75;2.85;;;19.20;92.40;;;;;;5048578;28;20032;-67
2021/07/21 06:45:50;;;;;;;8.55;3.42;;;19.30;92.40;;;;;;5050357;28;20028;-67
2021/07/21 06:48:16;;;;;;;8.65;3.33;;;19.20;92.40;;;;;;5048873;28;20035;-67
2021/07/21 06:50:42;;;;;;;3.10;2.80;;;19.50;91.50;;;;;;5050346;28;20048;-66
2021/07/21 06:53:08;;;;;;;4.45;2.97;;;19.40;91.50;;;;;;5048949;28;20021;-68
2021/07/21 06:55:33;;;;;;;4.53;3.10;;;19.60;91.70;;;;;;5035434;28;20049;-66
2021/07/21 06:57:59;;;;;;;4.15;2.80;;;19.70;91.90;;;;;;5030004;28;20030;-67
2021/07/21 07:00:26;;;;;;;4.72;3.92;;;19.70;91.50;;;;;;5029478;28;20028;-68
2021/07/21 07:02:51;;;;;;;8.05;3.40;;;19.80;91.50;;;;;;5012271;28;20033;-67
2021/07/21 07:05:18;;;;;;;6.82;3.20;;;19.90;91.50;;;;;;5012123;28;20026;-73
2021/07/21 07:07:44;;;;;;;3.80;2.55;;;20.00;91.40;;;;;;5030486;28;20108;-68
2021/07/21 07:10:10;;;;;;;3.15;2.33;;;20.20;90.90;;;;;;5029976;28;20122;-68
2021/07/21 07:12:36;;;;;;;4.00;2.67;;;20.30;90.80;;;;;;5011651;28;20037;-67
2021/07/21 07:15:05;;;;;;;4.22;2.90;;;20.30;90.60;;;;;;5029988;28;20025;-67
2021/07/21 07:17:31;;;;;;;4.07;3.35;;;20.30;90.40;;;;;;5011202;28;20029;-68
2021/07/21 07:19:57;;;;;;;5.03;2.75;;;20.20;90.60;;;;;;5012431;28;20045;-66
2021/07/21 07:22:22;;;;;;;7.50;2.72;;;20.20;90.60;;;;;;5029317;28;20025;-68
2021/07/21 07:24:48;;;;;;;9.07;3.47;;;20.20;90.40;;;;;;5030120;28;20029;-67
2021/07/21 07:27:14;;;;;;;5.30;2.55;;;20.40;90.40;;;;;;5030215;28;20033;-67
2021/07/21 07:29:39;;;;;;;4.55;2.55;;;20.60;90.00;;;;;;5029543;28;20035;-67
2021/07/21 07:32:06;;;;;;;8.57;3.45;;;20.70;89.80;;;;;;5030195;28;20036;-66
2021/07/21 07:34:32;;;;;;;5.13;2.70;;;20.80;89.90;;;;;;5029139;28;20428;-67
2021/07/21 07:36:58;;;;;;;5.55;3.08;;;20.90;90.00;;;;;;5012521;28;20128;-67
2021/07/21 07:39:24;;;;;;;6.10;2.30;;;21.10;88.20;;;;;;5029218;28;20036;-68
2021/07/21 07:41:50;;;;;;;3.30;2.60;;;21.10;87.90;;;;;;5032667;28;20140;-69
2021/07/21 07:44:16;;;;;;;2.92;2.58;;;21.20;88.70;;;;;;5016023;28;20026;-67
2021/07/21 07:46:42;;;;;;;4.13;2.50;;;21.30;88.20;;;;;;5032986;28;20366;-67
2021/07/21 07:49:09;;;;;;;4.00;2.72;;;21.30;88.70;;;;;;5015282;28;20025;-66
2021/07/21 07:51:35;;;;;;;4.68;2.97;;;21.50;88.10;;;;;;5014406;28;20033;-68
2021/07/21 07:54:02;;;;;;;10.93;3.05;;;21.40;86.80;;;;;;5032838;28;20112;-68
2021/07/21 07:56:28;;;;;;;6.57;2.90;;;21.60;87.30;;;;;;5032268;28;20360;-67
2021/07/21 07:58:54;;;;;;;4.45;2.90;;;21.80;86.80;;;;;;5033277;28;20056;-67
2021/07/21 08:01:20;;;;;;;7.57;2.78;;;21.90;87.60;;;;;;5015442;28;20427;-67
2021/07/21 08:03:46;;;;;;;6.20;3.03;;;21.90;87.70;;;;;;5033477;28;20455;-66
2021/07/21 08:06:12;;;;;;;3.35;2.78;;;21.80;87.40;;;;;;5016054;28;20026;-66
2021/07/21 08:08:38;;;;;;;9.38;2.80;;;21.70;87.60;;;;;;5032931;28;20126;-68
2021/07/21 08:11:05;;;;;;;4.65;2.75;;;22.10;87.40;;;;;;5033596;28;20022;-64
2021/07/21 08:13:32;;;;;;;9.77;2.25;;;22.30;86.40;;;;;;5033118;28;20029;-64
2021/07/21 08:15:58;;;;;;;7.35;2.90;;;22.80;91.30;;;;;;5033334;28;20112;-64
2021/07/21 08:18:24;;;;;;;3.17;2.28;;;23.20;85.60;;;;;;5014979;28;20128;-66
2021/07/21 08:20:49;;;;;;;4.13;2.67;;;23.40;88.80;;;;;;5033454;28;20021;-65
2021/07/21 08:23:15;;;;;;;3.70;2.25;;;23.70;86.40;;;;;;5032511;28;20383;-64
2021/07/21 08:25:44;;;;;;;4.65;2.10;;;24.00;87.80;;;;;;5014616;28;20033;-65
2021/07/21 08:28:14;;;;;;;5.32;2.08;;;24.10;84.30;;;;;;5015525;28;20030;-64
2021/07/21 08:30:40;;;;;;;3.97;1.95;;;24.40;86.10;;;;;;5032531;28;20079;-64
2021/07/21 08:33:06;;;;;;;11.15;2.33;;;24.50;83.20;;;;;;5036625;28;20044;-69
2021/07/21 08:35:32;;;;;;;3.58;2.28;;;24.60;82.30;;;;;;5028049;28;20101;-64
2021/07/21 08:38:00;;;;;;;3.03;2.17;;;24.70;81.40;;;;;;5032666;28;20029;-66
2021/07/21 08:40:27;;;;;;;2.88;2.00;;;24.60;80.30;;;;;;5051256;28;20063;-75
2021/07/21 08:42:53;;;;;;;4.15;2.08;;;24.70;81.80;;;;;;5052039;28;20028;-65
2021/07/21 08:45:19;;;;;;;4.30;2.28;;;24.90;81.60;;;;;;5033698;28;20033;-65
2021/07/21 08:47:45;;;;;;;8.48;3.60;;;24.90;81.70;;;;;;5050381;28;20106;-64
2021/07/21 08:50:12;;;;;;;4.57;2.67;;;25.20;81.40;;;;;;5051070;28;20076;-64
2021/07/21 08:52:39;;;;;;;7.60;3.33;;;25.40;78.70;;;;;;5032330;28;20122;-64
2021/07/21 08:55:07;;;;;;;8.75;2.60;;;25.60;80.60;;;;;;5031439;28;20049;-65
2021/07/21 08:57:34;;;;;;;5.45;2.70;;;25.40;77.80;;;;;;5030378;28;20395;-63
2021/07/21 09:00:02;;;;;;;7.40;2.65;;;25.70;77.80;;;;;;5018539;28;20517;-65
2021/07/21 09:02:28;;;;;;;3.80;2.20;;;25.80;76.70;;;;;;5046536;28;20064;-65
2021/07/21 09:04:54;;;;;;;8.40;2.30;;;25.70;80.10;;;;;;5032074;28;20025;-56
2021/07/21 09:07:20;;;;;;;4.57;1.92;;;25.70;77.10;;;;;;5047289;28;20041;-57
2021/07/21 09:09:46;;;;;;;3.95;3.03;;;25.90;77.90;;;;;;5050816;28;20394;-54
2021/07/21 09:12:12;;;;;;;5.95;3.05;;;26.00;78.50;;;;;;5032819;28;20382;-56
2021/07/21 09:14:38;;;;;;;2.88;2.10;;;26.30;76.10;;;;;;5032857;28;20061;-55
2021/07/21 09:17:08;;;;;;;4.65;2.03;;;26.40;73.20;;;;;;5033022;28;20032;-55
2021/07/21 09:19:37;;;;;;;2.30;2.03;;;26.60;73.60;;;;;;5030641;28;20128;-56
2021/07/21 09:22:15;;;;;;;10.10;2.70;;;26.80;74.50;;;;;;5032310;28;20032;-57
2021/07/21 09:24:41;;;;;;;6.20;2.63;;;26.50;75.90;;;;;;5031879;28;20112;-56
2021/07/21 09:27:07;;;;;;;6.03;2.63;;;26.50;73.60;;;;;;5050507;28;20577;-55
2021/07/21 09:29:33;;;;;;;2.88;1.95;;;26.90;73.90;;;;;;5050085;28;20033;-60
2021/07/21 09:32:00;;;;;;;4.45;2.55;;;27.10;70.30;;;;;;5032807;28;20025;-54
2021/07/21 09:34:26;;;;;;;4.40;1.75;;;26.90;72.70;;;;;;5048591;28;20433;-55
2021/07/21 09:37:07;;;;;;;8.55;2.90;;;27.00;72.20;;;;;;5031744;28;20021;-56
2021/07/21 09:39:38;;;;;;;5.15;1.90;;;27.00;73.10;;;;;;5049924;28;20343;-55
2021/07/21 09:42:05;;;;;;;5.53;2.38;;;27.10;71.50;;;;;;5048336;28;20055;-55
2021/07/21 09:44:33;;;;;;;4.75;2.20;;;26.90;71.00;;;;;;5014238;28;20055;-56
2021/07/21 09:47:22;;;;;;;6.32;2.20;;;27.00;72.80;;;;;;5029097;28;20116;-55
2021/07/21 09:49:49;;;;;;;3.08;2.20;;;27.20;71.30;;;;;;5048644;28;20474;-56
2021/07/21 09:52:20;;;;;;;4.75;2.20;;;27.40;69.80;;;;;;5031964;28;20025;-54
2021/07/21 09:55:10;;;;;;;7.05;2.63;;;27.10;72.20;;;;;;5042552;28;20610;-56
2021/07/21 09:57:37;;;;;;;3.72;2.55;;;26.90;68.00;;;;;;5067458;28;20035;-58
2021/07/21 10:00:22;;;;;;;5.10;2.38;;;26.90;71.80;;;;;;5064221;28;20044;-54
2021/07/21 10:03:06;;;;;;;3.67;2.28;;;27.00;72.00;;;;;;5054012;28;20086;-59
2021/07/21 10:05:32;;;;;;;4.32;2.10;;;27.20;73.50;;;;;;5048846;28;20033;-56
2021/07/21 10:08:03;;;;;;;3.58;2.10;;;27.60;69.80;;;;;;5050008;28;20487;-55
2021/07/21 10:10:29;;;;;;;3.38;2.30;;;27.70;69.70;;;;;;5050286;28;20132;-56
2021/07/21 10:13:07;;;;;;;3.28;1.80;;;27.60;67.60;;;;;;5058860;28;20112;-55
2021/07/21 10:15:34;;;;;;;3.20;2.22;;;27.80;69.20;;;;;;5055357;28;20053;-55
2021/07/21 10:18:17;;;;;;;4.35;1.95;;;27.70;67.80;;;;;;5050650;28;20029;-56
2021/07/21 10:20:44;;;;;;;3.70;1.77;;;28.00;68.90;;;;;;5054619;28;20040;-57
2021/07/21 10:23:13;;;;;;;4.82;1.65;;;27.90;66.50;;;;;;5053058;28;20028;-56
2021/07/21 10:25:39;;;;;;;1.98;1.48;;;27.90;66.70;;;;;;5058883;28;20454;-56
2021/07/21 10:28:06;;;;;;;3.78;1.70;;;28.10;65.70;;;;;;5053721;28;20029;-56
2021/07/21 10:30:34;;;;;;;9.07;2.20;;;28.30;65.10;;;;;;5048413;28;20098;-56
2021/07/21 10:33:00;;;;;;;9.45;2.10;;;28.40;67.10;;;;;;5050247;28;20352;-56
2021/07/21 10:35:28;;;;;;;4.82;1.80;;;28.50;65.90;;;;;;5057016;28;20031;-66
2021/07/21 10:37:54;;;;;;;1.88;1.60;;;28.30;64.70;;;;;;5057029;28;20052;-56
2021/07/21 10:40:24;;;;;;;5.05;1.63;;;27.90;66.50;;;;;;5063885;28;20068;-55
2021/07/21 10:42:53;;;;;;;1.75;1.58;;;28.00;65.40;;;;;;5053250;28;20033;-55
2021/07/21 10:45:26;;;;;;;4.65;1.55;;;28.40;64.90;;;;;;5063717;28;20040;-57
2021/07/21 10:47:58;;;;;;;2.50;1.88;;;28.60;64.30;;;;;;5055671;28;20338;-56
2021/07/21 10:53:37;;;;;;;2.63;1.70;;;28.70;64.30;;;;;;5068870;28;20028;-57
2021/07/21 10:59:14;;;;;;;2.00;1.60;;;29.00;63.60;;;;;;5070325;28;20370;-55
2021/07/21 11:02:02;;;;;;;5.47;1.80;;;29.10;63.70;;;;;;5069224;28;20434;-56
2021/07/21 11:04:47;;;;;;;3.50;1.88;;;29.00;61.90;;;;;;5069935;28;20086;-57
2021/07/21 11:07:16;;;;;;;2.15;1.80;;;29.40;62.10;;;;;;5069951;28;20071;-56
2021/07/21 11:09:42;;;;;;;5.40;1.80;;;29.50;62.10;;;;;;5067931;28;20043;-55
2021/07/21 11:12:09;;;;;;;1.85;1.63;;;29.30;61.40;;;;;;5070003;28;20535;-55
2021/07/21 11:14:35;;;;;;;2.28;1.55;;;29.50;61.70;;;;;;5069435;28;20032;-55
2021/07/21 11:17:06;;;;;;;2.65;1.60;;;29.20;61.60;;;;;;5073920;28;20037;-56
2021/07/21 11:19:46;;;;;;;3.58;2.55;;;29.30;60.90;;;;;;5073793;28;20064;-55
2021/07/21 11:22:28;;;;;;;5.95;2.72;;;29.30;61.80;;;;;;5073811;28;20507;-56
2021/07/21 11:25:05;;;;;;;1.27;1.17;;;29.70;63.20;;;;;;5072961;28;20382;-57
2021/07/21 11:27:40;;;;;;;9.43;1.98;;;30.00;61.70;;;;;;5072580;28;20076;-57
2021/07/21 11:30:50;;;;;;;7.80;2.60;;;30.30;63.40;;;;;;5072817;28;20051;-56
2021/07/21 11:33:50;;;;;;;7.93;2.92;;;30.00;62.50;;;;;;5072573;28;20032;-55
2021/07/21 11:36:38;;;;;;;2.45;2.15;;;30.00;63.60;;;;;;5072572;28;20033;-55
2021/07/21 11:39:04;;;;;;;2.90;1.70;;;29.90;62.50;;;;;;5073439;28;20056;-56
2021/07/21 11:41:45;;;;;;;1.92;1.77;;;30.10;63.50;;;;;;5071856;28;20063;-57
2021/07/21 11:44:19;;;;;;;2.17;1.88;;;30.30;63.20;;;;;;5073657;28;20029;-56
2021/07/21 11:46:45;;;;;;;5.03;1.73;;;30.10;63.70;;;;;;5071526;28;20050;-55
2021/07/21 11:49:11;;;;;;;5.57;2.30;;;30.00;61.10;;;;;;5073646;28;20033;-55
2021/07/21 11:51:39;;;;;;;2.33;1.77;;;30.30;61.10;;;;;;5073059;28;20092;-55
2021/07/21 11:54:06;;;;;;;4.45;2.03;;;30.50;60.00;;;;;;5071237;28;20033;-55
2021/07/21 11:56:32;;;;;;;4.32;2.35;;;30.20;59.60;;;;;;5053064;28;20029;-55
2021/07/21 11:59:04;;;;;;;4.15;2.63;;;30.00;60.30;;;;;;5053798;28;20044;-55
2021/07/21 12:01:30;;;;;;;4.15;2.30;;;30.10;60.60;;;;;;5035174;28;20036;-62
2021/07/21 12:03:56;;;;;;;4.90;2.22;;;30.20;59.90;;;;;;5053132;28;20029;-55
2021/07/21 12:06:23;;;;;;;4.35;1.98;;;30.00;60.10;;;;;;5035259;28;20107;-55
2021/07/21 12:08:55;;;;;;;3.05;1.85;;;30.40;60.70;;;;;;5052446;28;20060;-55
2021/07/21 12:11:24;;;;;;;2.15;1.95;;;30.40;61.00;;;;;;5052700;28;20056;-55
2021/07/21 12:14:01;;;;;;;2.38;1.67;;;30.50;61.30;;;;;;5051886;28;20773;-56
2021/07/21 12:16:37;;;;;;;10.57;2.60;;;30.60;60.50;;;;;;5034935;28;20048;-55
2021/07/21 12:19:06;;;;;;;6.65;2.00;;;30.40;58.20;;;;;;5024162;28;20466;-59
2021/07/21 12:21:34;;;;;;;5.80;2.05;;;30.40;60.40;;;;;;5019399;28;20057;-68
2021/07/21 12:24:03;;;;;;;4.15;1.90;;;30.60;60.90;;;;;;5024804;28;20029;-57
2021/07/21 12:26:55;;;;;;;3.10;2.40;;;30.70;60.90;;;;;;5016022;28;20037;-57
2021/07/21 12:29:28;;;;;;;3.00;2.30;;;30.70;59.90;;;;;;5027868;28;20051;-56
2021/07/21 12:32:14;;;;;;;3.45;1.92;;;30.70;58.30;;;;;;5031292;28;20060;-55
2021/07/21 12:34:42;;;;;;;4.40;2.47;;;30.70;59.40;;;;;;5018260;28;20470;-55
2021/07/21 12:37:13;;;;;;;2.78;2.22;;;30.60;58.80;;;;;;5040757;28;20033;-56
2021/07/21 12:39:41;;;;;;;3.42;2.55;;;30.50;59.20;;;;;;5019015;28;20033;-56
2021/07/21 12:42:11;;;;;;;3.35;2.35;;;30.60;59.30;;;;;;5022823;28;20032;-56
2021/07/21 12:44:59;;;;;;;4.85;2.47;;;30.70;59.30;;;;;;5021530;28;20032;-55
2021/07/21 12:47:27;;;;;;;2.30;2.10;;;30.90;60.00;;;;;;5023428;28;20095;-56
2021/07/21 12:49:55;;;;;;;8.38;2.42;;;31.00;57.40;;;;;;5034422;28;20106;-57
2021/07/21 12:52:28;;;;;;;5.47;1.95;;;31.00;57.40;;;;;;5014713;28;20026;-57
2021/07/21 12:54:56;;;;;;;3.15;2.05;;;31.00;58.00;;;;;;5027708;28;20045;-56
2021/07/21 12:57:51;;;;;;;5.25;2.30;;;30.90;58.00;;;;;;5051778;28;20033;-56
2021/07/21 13:00:25;;;;;;;2.33;1.70;;;30.90;57.70;;;;;;5029893;28;20049;-56
2021/07/21 13:03:01;;;;;;;2.30;2.03;;;31.10;58.50;;;;;;5049669;28;20025;-56
2021/07/21 13:05:32;;;;;;;4.40;2.00;;;31.20;58.00;;;;;;5051073;28;20082;-55
2021/07/21 13:08:12;;;;;;;7.85;2.92;;;31.10;57.20;;;;;;5049634;28;20033;-55
2021/07/21 13:10:43;;;;;;;2.60;2.03;;;31.10;57.30;;;;;;5066429;28;20330;-55